Time;durP1;ratioP1;P1;durP2;ratioP2;P2;SDS_P1;SDS_P2;PMS_P1;PMS_P2;Temp;Humidity;BMP_temperature;BMP_pressure;BME280_temperature;BME280_humidity;BME280_pressure;Samples;Min_cycle;Max_cycle;Signal;HPM_P1;HPM_P2
2022/12/15 00:43:44;;;;;;;25.13;18.93;;;;;;;1.68;99.18;94250.91;6256012;22;20195;-90
2022/12/15 01:47:15;;;;;;;23.03;16.70;;;;;;;1.56;98.66;94302.84;6184382;23;20509;-90
2022/12/15 01:53:07;;;;;;;;;;;;;;;;;;;;;
2022/12/15 01:55:51;;;;;;;25.47;17.20;;;;;;;1.59;97.82;94289.88;6240916;22;20552;-90
2022/12/15 01:59:00;;;;;;;23.83;17.90;;;;;;;1.62;97.80;94297.19;6240542;23;20629;-90
2022/12/15 02:05:08;;;;;;;22.30;16.20;;;;;;;1.59;97.60;94293.19;6239109;22;20208;-90
2022/12/15 02:14:47;;;;;;;20.53;15.40;;;;;;;1.33;96.45;94297.56;6234241;22;20185;-90
2022/12/15 02:45:15;;;;;;;21.23;15.17;;;;;;;1.23;98.65;94358.50;6021780;23;20203;-90
2022/12/15 02:51:49;;;;;;;;;;;;;;;;;;;;;
2022/12/15 02:58:11;;;;;;;22.83;16.43;;;;;;;1.37;97.37;94362.19;6181449;22;20173;-90
2022/12/15 03:04:17;;;;;;;22.77;16.90;;;;;;;1.37;97.11;94367.28;6228743;22;20200;-90
2022/12/15 03:16:28;;;;;;;;;;;;;;;;;;;;;
2022/12/15 03:22:30;;;;;;;24.40;17.63;;;;;;;1.49;95.59;94375.44;6270077;22;20251;-90
2022/12/15 03:28:42;;;;;;;25.13;18.30;;;;;;;1.46;94.78;94365.59;6133477;23;20254;-90
2022/12/15 03:38:35;;;;;;;25.83;18.17;;;;;;;1.33;94.40;94376.16;6229217;22;20186;-91
2022/12/15 03:41:44;;;;;;;26.63;19.30;;;;;;;1.26;95.26;94400.50;6087760;23;20204;-90
2022/12/15 03:49:06;;;;;;;26.40;19.30;;;;;;;1.24;95.83;94397.31;6032639;22;20193;-90
2022/12/15 04:02:48;;;;;;;27.80;19.60;;;;;;;1.07;94.25;94408.28;6117753;22;20248;-90
2022/12/15 04:06:00;;;;;;;26.50;19.73;;;;;;;0.95;94.94;94416.13;6206382;22;20207;-90
2022/12/15 04:08:34;;;;;;;28.17;19.33;;;;;;;0.85;95.11;94417.16;6239178;22;20172;-90
2022/12/15 04:11:37;;;;;;;26.80;19.57;;;;;;;0.82;96.50;94415.69;6242529;22;20218;-90
2022/12/15 04:15:03;;;;;;;;;;;;;;;;;;;;;
2022/12/15 05:33:56;;;;;;;28.90;21.17;;;;;;;1.12;93.88;94465.19;6243467;23;20272;-82
2022/12/15 05:36:24;;;;;;;28.70;21.37;;;;;;;1.14;93.79;94465.06;6244172;23;20177;-83
2022/12/15 05:38:52;;;;;;;27.83;19.97;;;;;;;1.20;93.92;94467.78;6243663;23;20184;-82
2022/12/15 05:41:19;;;;;;;29.50;21.63;;;;;;;1.26;93.76;94467.19;6243681;23;20180;-81
2022/12/15 05:43:46;;;;;;;30.07;20.43;;;;;;;1.18;93.28;94451.91;6241238;22;20220;-81
2022/12/15 05:46:13;;;;;;;27.10;20.13;;;;;;;1.07;93.72;94461.50;6242484;23;20180;-82
2022/12/15 05:48:40;;;;;;;30.73;21.70;;;;;;;1.04;94.05;94458.31;6241847;23;20176;-81
2022/12/15 05:51:08;;;;;;;27.07;20.40;;;;;;;1.13;94.26;94461.72;6244052;23;20180;-82
2022/12/15 05:53:37;;;;;;;27.53;20.53;;;;;;;1.17;94.05;94467.28;6243955;23;20181;-82
2022/12/15 05:56:04;;;;;;;28.77;20.70;;;;;;;1.21;94.43;94478.72;6243905;23;20204;-81
2022/12/15 05:58:30;;;;;;;30.63;21.17;;;;;;;1.18;94.27;94477.25;6243842;23;20179;-82
2022/12/15 06:01:03;;;;;;;27.60;20.73;;;;;;;1.07;94.16;94477.50;6244310;23;20199;-82
2022/12/15 06:03:30;;;;;;;41.63;23.50;;;;;;;1.05;100.00;94484.47;6243465;23;20177;-82
2022/12/15 06:05:56;;;;;;;29.80;21.17;;;;;;;1.02;100.00;94489.81;6243709;23;20193;-83
2022/12/15 06:08:23;;;;;;;31.33;21.97;;;;;;;1.14;100.00;94493.75;6242580;23;20558;-81
2022/12/15 06:10:54;;;;;;;29.87;21.07;;;;;;;1.18;97.60;94495.00;6242448;23;20180;-80
2022/12/15 06:13:21;;;;;;;262.17;160.63;;;;;;;1.18;95.87;94500.09;6243505;23;20156;-81
2022/12/15 06:15:55;;;;;;;110.97;70.87;;;;;;;1.26;95.77;94510.28;6243018;23;20193;-80
2022/12/15 06:18:21;;;;;;;33.77;23.80;;;;;;;1.27;94.36;94511.09;6243424;22;20255;-83
2022/12/15 06:20:48;;;;;;;38.00;27.07;;;;;;;1.24;94.93;94517.25;6244687;23;20541;-82
2022/12/15 06:23:14;;;;;;;32.93;22.50;;;;;;;1.23;96.11;94520.72;6244176;23;20627;-81
2022/12/15 06:25:41;;;;;;;34.33;25.43;;;;;;;1.27;95.13;94521.25;6243133;23;20196;-82
2022/12/15 06:28:08;;;;;;;86.00;55.43;;;;;;;1.20;95.04;94525.28;6245191;23;20520;-83
2022/12/15 06:30:36;;;;;;;35.97;25.17;;;;;;;1.12;94.32;94538.69;6244535;22;20195;-82
2022/12/15 06:33:03;;;;;;;29.10;21.20;;;;;;;1.12;94.00;94525.22;6244554;23;20228;-82
2022/12/15 06:35:29;;;;;;;28.37;19.90;;;;;;;1.12;94.36;94520.97;6244239;23;20189;-82
2022/12/15 06:37:56;;;;;;;27.97;20.90;;;;;;;1.16;93.82;94523.97;6242801;23;20199;-82
2022/12/15 06:40:22;;;;;;;28.13;20.43;;;;;;;1.04;92.77;94526.75;6243955;23;20173;-82
2022/12/15 06:42:48;;;;;;;26.97;19.43;;;;;;;1.06;93.46;94530.88;6243416;23;20177;-82
2022/12/15 06:45:16;;;;;;;24.93;19.60;;;;;;;1.12;93.75;94535.38;6244126;23;20549;-82
2022/12/15 06:47:43;;;;;;;24.77;18.37;;;;;;;1.02;93.55;94541.28;6242961;23;20173;-82
2022/12/15 06:50:09;;;;;;;23.40;18.10;;;;;;;1.05;93.76;94545.28;6243940;23;20180;-82
2022/12/15 06:52:36;;;;;;;24.27;18.50;;;;;;;0.93;92.54;94547.25;6243445;23;20172;-82
2022/12/15 06:55:02;;;;;;;25.63;18.93;;;;;;;0.76;94.53;94550.53;6243894;23;20249;-83
2022/12/15 06:57:29;;;;;;;26.43;19.17;;;;;;;0.78;95.48;94550.38;6242811;23;20173;-82
2022/12/15 06:59:55;;;;;;;23.90;18.63;;;;;;;0.89;95.06;94547.66;6242797;23;20183;-82
2022/12/15 07:02:23;;;;;;;25.60;18.93;;;;;;;0.96;94.81;94554.53;6243023;23;20173;-81
2022/12/15 07:04:50;;;;;;;23.60;18.00;;;;;;;1.01;94.52;94543.97;6242604;23;20211;-81
2022/12/15 07:07:16;;;;;;;27.43;18.50;;;;;;;0.98;94.11;94544.25;6242471;23;20180;-83
2022/12/15 07:09:42;;;;;;;26.23;19.20;;;;;;;0.99;94.00;94554.25;6241598;23;20161;-82
2022/12/15 07:12:11;;;;;;;27.07;18.73;;;;;;;1.06;93.70;94557.00;6242929;23;20177;-82
2022/12/15 07:14:38;;;;;;;26.80;19.37;;;;;;;1.09;93.41;94554.19;6242213;23;20262;-82
2022/12/15 07:17:04;;;;;;;28.20;17.83;;;;;;;1.46;100.00;94553.25;6243533;23;20187;-83
2022/12/15 07:19:32;;;;;;;26.17;19.77;;;;;;;1.92;100.00;94554.69;6244126;23;20177;-82
2022/12/15 07:22:00;;;;;;;25.23;18.83;;;;;;;1.99;100.00;94551.41;6242482;23;20173;-82
2022/12/15 07:24:26;;;;;;;25.57;18.57;;;;;;;1.95;94.65;94552.63;6242925;23;20200;-81
2022/12/15 07:26:53;;;;;;;24.97;18.63;;;;;;;1.68;91.16;94558.66;6243509;23;20173;-83
2022/12/15 07:29:20;;;;;;;24.43;18.53;;;;;;;1.57;92.05;94551.25;6242872;22;20213;-82
2022/12/15 07:31:46;;;;;;;25.67;18.83;;;;;;;1.48;nan;94564.03;6242786;22;20157;-82
2022/12/15 07:34:13;;;;;;;28.70;20.63;;;;;;;1.39;94.15;94566.50;6243419;23;20200;-81
2022/12/15 07:36:40;;;;;;;29.97;20.63;;;;;;;1.19;94.25;94572.66;6243660;23;20196;-82
2022/12/15 07:39:07;;;;;;;28.73;20.50;;;;;;;1.25;94.29;94574.63;6243263;23;20179;-81
2022/12/15 07:41:34;;;;;;;27.57;21.23;;;;;;;1.29;94.15;94565.00;6243158;23;20184;-82
2022/12/15 07:44:01;;;;;;;28.40;21.27;;;;;;;1.33;93.18;94543.47;6242835;23;20192;-82
2022/12/15 07:46:28;;;;;;;26.57;19.00;;;;;;;1.36;92.89;94549.03;6242447;23;20172;-82
2022/12/15 07:48:54;;;;;;;27.70;20.23;;;;;;;1.38;92.78;94554.75;6242326;23;20173;-83
2022/12/15 07:51:22;;;;;;;25.73;19.80;;;;;;;1.42;92.25;94559.53;6243122;23;20173;-82
2022/12/15 07:53:50;;;;;;;26.67;20.57;;;;;;;1.42;92.51;94557.00;6242435;22;20259;-83
2022/12/15 07:56:18;;;;;;;28.63;20.60;;;;;;;1.44;92.13;94550.84;6242428;23;20259;-82
2022/12/15 07:58:44;;;;;;;26.97;20.30;;;;;;;1.47;92.08;94542.94;6242165;23;20258;-82
2022/12/15 08:01:13;;;;;;;28.90;20.43;;;;;;;1.39;91.71;94548.75;6242729;23;20173;-81
2022/12/15 08:03:40;;;;;;;30.30;20.97;;;;;;;1.44;91.92;94542.44;6242042;23;20177;-82
2022/12/15 08:06:08;;;;;;;26.67;20.07;;;;;;;1.48;92.19;94541.22;6242533;23;20260;-82
2022/12/15 08:08:35;;;;;;;26.47;20.60;;;;;;;1.45;90.96;94541.50;6241537;22;20502;-83
2022/12/15 08:11:05;;;;;;;32.03;21.67;;;;;;;1.38;91.29;94548.88;6242333;23;20210;-81
2022/12/15 08:13:33;;;;;;;28.53;20.40;;;;;;;1.32;92.29;94559.63;6242261;23;20161;-80
2022/12/15 08:16:00;;;;;;;30.33;21.47;;;;;;;1.28;91.90;94571.78;6242283;23;20197;-82
2022/12/15 08:18:26;;;;;;;32.20;22.90;;;;;;;1.18;92.49;94571.06;6242266;23;20178;-82
2022/12/15 08:20:53;;;;;;;32.17;21.87;;;;;;;1.22;92.76;94574.09;6242336;23;20169;-81
2022/12/15 08:23:19;;;;;;;32.10;22.47;;;;;;;1.25;93.21;94577.16;6242000;22;20861;-83
2022/12/15 08:25:46;;;;;;;30.57;22.23;;;;;;;1.30;92.24;94582.59;6242175;23;20197;-82
2022/12/15 08:28:14;;;;;;;34.60;23.63;;;;;;;1.17;93.48;94573.72;6242141;23;20219;-81
2022/12/15 08:30:40;;;;;;;34.30;23.57;;;;;;;1.13;93.40;94597.78;6242571;22;20574;-82
2022/12/15 08:33:07;;;;;;;30.37;22.37;;;;;;;0.94;91.57;94606.31;6243021;23;20520;-82
2022/12/15 08:35:33;;;;;;;30.33;22.27;;;;;;;0.83;94.95;94616.63;6242459;23;20698;-81
2022/12/15 08:38:01;;;;;;;32.00;23.27;;;;;;;0.92;95.38;94620.84;6241952;23;20634;-83
2022/12/15 08:40:27;;;;;;;31.77;22.57;;;;;;;0.94;95.10;94622.31;6242832;23;20185;-82
2022/12/15 08:42:54;;;;;;;31.67;22.73;;;;;;;1.09;95.26;94626.91;6242899;23;20169;-82
2022/12/15 08:45:22;;;;;;;30.83;22.27;;;;;;;1.17;94.44;94624.44;6242324;22;20201;-82
2022/12/15 08:47:48;;;;;;;31.13;22.47;;;;;;;1.22;94.73;94624.81;6241634;23;20184;-82
2022/12/15 08:50:15;;;;;;;33.23;23.57;;;;;;;1.18;92.44;94633.63;6243933;23;20173;-82
2022/12/15 08:52:41;;;;;;;29.80;22.90;;;;;;;1.29;93.15;94625.84;6243379;23;20177;-81
2022/12/15 08:55:10;;;;;;;31.77;22.80;;;;;;;1.31;93.43;94621.41;6243667;23;20196;-83
2022/12/15 08:57:37;;;;;;;32.73;22.97;;;;;;;1.37;93.51;94633.50;6244066;23;20207;-81
2022/12/15 09:00:04;;;;;;;33.57;22.77;;;;;;;1.28;93.15;94645.31;6244155;22;20176;-82
2022/12/15 09:02:32;;;;;;;29.60;22.07;;;;;;;1.35;93.59;94640.47;6243927;23;20177;-82
2022/12/15 09:04:59;;;;;;;29.27;21.33;;;;;;;1.45;92.82;94641.19;6243764;23;20204;-83
2022/12/15 09:07:25;;;;;;;30.40;22.17;;;;;;;1.57;92.63;94640.03;6243902;23;20188;-82
2022/12/15 09:09:51;;;;;;;29.87;22.23;;;;;;;1.64;91.70;94625.84;6242915;23;20180;-83
2022/12/15 09:12:18;;;;;;;31.27;22.40;;;;;;;1.62;90.98;94632.00;6243316;23;20177;-82
2022/12/15 09:14:44;;;;;;;31.17;22.80;;;;;;;1.61;89.99;94635.47;6243078;23;20189;-82
2022/12/15 09:17:11;;;;;;;32.33;22.73;;;;;;;1.47;91.14;94630.91;6244076;23;20173;-82
2022/12/15 09:19:39;;;;;;;29.53;21.83;;;;;;;1.46;91.41;94612.38;6243133;23;20227;-82
2022/12/15 09:22:06;;;;;;;31.33;23.33;;;;;;;1.52;92.09;94605.94;6243147;23;20361;-82
2022/12/15 09:24:33;;;;;;;34.33;23.37;;;;;;;1.61;91.75;94594.88;6243633;23;20230;-81
2022/12/15 09:26:59;;;;;;;34.00;23.13;;;;;;;1.60;90.64;94595.84;6243641;23;20183;-83
2022/12/15 09:29:26;;;;;;;30.60;22.43;;;;;;;1.63;91.11;94596.34;6243499;22;20184;-85
2022/12/15 09:31:52;;;;;;;31.63;22.93;;;;;;;1.51;90.81;94584.03;6244082;23;20169;-82
2022/12/15 09:34:19;;;;;;;31.43;23.10;;;;;;;1.56;92.02;94594.53;6244689;23;20200;-82
2022/12/15 09:36:47;;;;;;;29.70;23.57;;;;;;;1.59;91.91;94597.56;6244151;23;20210;-82
2022/12/15 09:39:15;;;;;;;32.77;23.77;;;;;;;1.54;89.90;94596.44;6243717;23;20173;-82
2022/12/15 09:41:44;;;;;;;31.77;23.07;;;;;;;1.48;90.89;94590.19;6244177;23;20511;-83
2022/12/15 09:44:13;;;;;;;30.97;22.13;;;;;;;1.36;92.39;94584.53;6243560;23;20197;-82
2022/12/15 09:46:51;;;;;;;33.53;23.73;;;;;;;1.34;91.31;94588.97;6243972;23;20223;-81
2022/12/15 09:49:24;;;;;;;30.23;22.63;;;;;;;1.26;92.79;94585.56;6244590;23;20507;-82
2022/12/15 09:52:00;;;;;;;33.47;24.03;;;;;;;1.19;94.01;94592.13;6245336;22;20161;-82
2022/12/15 09:54:31;;;;;;;34.33;23.60;;;;;;;1.15;93.41;94589.13;6240390;23;20192;-83
2022/12/15 09:57:01;;;;;;;32.03;23.30;;;;;;;1.15;94.16;94588.31;6243192;22;20165;-82
2022/12/15 09:59:33;;;;;;;32.50;23.40;;;;;;;1.22;94.38;94586.78;6243287;23;20498;-83
2022/12/15 10:02:17;;;;;;;36.63;24.27;;;;;;;1.36;93.88;94576.91;6243391;23;20172;-81
2022/12/15 10:04:52;;;;;;;33.53;24.87;;;;;;;1.42;92.99;94575.56;6243398;23;20201;-83
2022/12/15 10:07:28;;;;;;;33.37;23.07;;;;;;;1.55;93.42;94565.03;6243622;23;20187;-82
2022/12/15 10:09:55;;;;;;;34.47;24.13;;;;;;;1.54;92.36;94555.84;6243003;23;20168;-82
2022/12/15 10:12:28;;;;;;;34.40;24.10;;;;;;;1.54;92.65;94553.31;6243705;23;20661;-82
2022/12/15 10:15:07;;;;;;;36.20;24.67;;;;;;;1.65;92.46;94551.34;6243784;23;20188;-83
2022/12/15 10:17:41;;;;;;;32.67;24.13;;;;;;;1.77;92.17;94543.47;6243386;22;20236;-82
2022/12/15 10:20:18;;;;;;;34.67;24.67;;;;;;;1.83;91.61;94553.03;6243626;23;20169;-82
2022/12/15 10:22:46;;;;;;;33.67;23.33;;;;;;;1.92;91.17;94552.97;6243382;23;20161;-81
2022/12/15 10:25:18;;;;;;;33.47;23.20;;;;;;;1.93;90.45;94559.59;6244004;22;20203;-82
2022/12/15 10:28:01;;;;;;;35.83;24.00;;;;;;;1.91;90.00;94548.81;6243890;22;20229;-82
2022/12/15 10:30:28;;;;;;;32.10;23.00;;;;;;;1.89;91.08;94555.00;6243789;22;20545;-82
2022/12/15 10:33:02;;;;;;;32.73;24.27;;;;;;;1.85;91.43;94549.41;6243276;23;20177;-82
2022/12/15 10:35:30;;;;;;;33.07;23.80;;;;;;;1.62;91.12;94560.97;6243009;23;20518;-82
2022/12/15 10:38:02;;;;;;;32.50;23.17;;;;;;;1.62;92.54;94558.44;6242947;23;20260;-82
2022/12/15 10:40:45;;;;;;;33.90;24.47;;;;;;;1.70;92.54;94556.78;6243012;22;20192;-82
2022/12/15 10:43:14;;;;;;;34.70;24.03;;;;;;;1.62;93.04;94541.47;6243142;23;20161;-82
2022/12/15 10:45:40;;;;;;;34.13;23.80;;;;;;;1.71;93.31;94539.81;6242769;23;20840;-83
2022/12/15 10:48:18;;;;;;;33.77;24.07;;;;;;;1.73;93.16;94541.22;6242724;23;20183;-83
2022/12/15 10:50:45;;;;;;;34.17;23.33;;;;;;;1.86;93.16;94542.59;6243279;22;20255;-82
2022/12/15 10:53:39;;;;;;;31.23;23.43;;;;;;;1.93;92.61;94543.56;6242822;23;20179;-81
2022/12/15 10:56:07;;;;;;;34.07;23.67;;;;;;;2.02;92.17;94525.72;6241890;22;20193;-81
2022/12/15 10:58:46;;;;;;;34.27;24.43;;;;;;;2.09;91.59;94513.22;6242727;22;20231;-82
2022/12/15 11:01:16;;;;;;;32.57;24.03;;;;;;;2.08;91.22;94502.28;6243009;23;20168;-82
2022/12/15 11:03:42;;;;;;;35.87;24.07;;;;;;;2.12;91.22;94500.22;6243340;23;20157;-82
2022/12/15 11:06:14;;;;;;;33.83;24.13;;;;;;;2.08;91.53;94506.56;6242052;23;20205;-82
2022/12/15 11:08:43;;;;;;;33.87;24.60;;;;;;;2.08;91.37;94507.34;6241221;23;20161;-82
2022/12/15 11:14:16;;;;;;;35.40;23.60;;;;;;;2.21;90.76;94518.81;6242802;23;20236;-81
2022/12/15 11:16:48;;;;;;;33.87;23.23;;;;;;;2.15;90.49;94507.53;6241949;23;20192;-81
2022/12/15 11:19:25;;;;;;;32.43;23.50;;;;;;;2.16;90.90;94514.19;6241966;23;20157;-82
2022/12/15 11:21:58;;;;;;;33.33;24.07;;;;;;;2.21;90.05;94506.94;6242239;23;20160;-82
2022/12/15 11:24:35;;;;;;;38.53;25.53;;;;;;;2.10;90.50;94499.59;6242264;23;20196;-81
2022/12/15 11:27:09;;;;;;;36.93;24.90;;;;;;;2.03;90.71;94508.75;6242360;22;20227;-81
2022/12/15 11:29:48;;;;;;;36.07;24.87;;;;;;;2.01;91.19;94495.41;6242111;22;20180;-81
2022/12/15 11:32:18;;;;;;;35.30;24.87;;;;;;;1.97;91.72;94494.91;6243669;23;20161;-81
2022/12/15 11:34:46;;;;;;;35.40;25.17;;;;;;;2.05;91.71;94482.28;6242061;22;20219;-82
2022/12/15 11:37:36;;;;;;;36.77;26.63;;;;;;;2.16;91.55;94480.41;6242492;23;20542;-82
2022/12/15 11:40:23;;;;;;;36.30;26.43;;;;;;;2.16;90.43;94481.19;6242405;23;20157;-82
2022/12/15 11:43:05;;;;;;;40.00;26.63;;;;;;;1.90;90.96;94480.44;6242100;22;20200;-81
2022/12/15 11:45:41;;;;;;;38.17;26.90;;;;;;;1.80;92.13;94490.69;6241231;23;20704;-81
2022/12/15 11:48:13;;;;;;;38.03;25.90;;;;;;;1.74;92.75;94494.63;6241978;23;20606;-82
2022/12/15 11:50:51;;;;;;;39.70;27.40;;;;;;;1.69;93.20;94504.44;6242793;23;20158;-82
2022/12/15 11:53:47;;;;;;;39.90;27.07;;;;;;;1.65;93.31;94502.34;6242741;22;20622;-81
2022/12/15 11:56:25;;;;;;;38.47;26.83;;;;;;;1.67;93.76;94503.00;6226453;22;20193;-83
2022/12/15 11:59:13;;;;;;;39.63;27.13;;;;;;;1.64;93.87;94503.28;6240054;23;20165;-81
2022/12/15 12:01:59;;;;;;;38.20;27.53;;;;;;;1.79;93.48;94506.06;6242695;23;20161;-81
2022/12/15 12:04:29;;;;;;;37.53;26.30;;;;;;;1.81;93.33;94499.09;6242582;23;20193;-83
2022/12/15 12:07:08;;;;;;;39.83;26.30;;;;;;;1.78;92.31;94497.66;6243562;23;20203;-82
2022/12/15 12:09:37;;;;;;;39.77;25.67;;;;;;;1.66;93.11;94502.19;6241538;23;20165;-81
2022/12/15 12:12:20;;;;;;;34.50;25.57;;;;;;;1.76;93.42;94491.13;6242462;23;20200;-83
2022/12/15 12:15:03;;;;;;;39.60;26.13;;;;;;;1.85;93.24;94483.44;6242020;23;20780;-82
2022/12/15 12:17:40;;;;;;;39.23;26.07;;;;;;;1.84;92.59;94474.22;6241691;23;20159;-82
2022/12/15 12:20:16;;;;;;;35.87;25.83;;;;;;;1.90;92.56;94460.16;6241871;23;20259;-83
2022/12/15 12:22:52;;;;;;;39.27;26.70;;;;;;;1.99;92.30;94449.06;6242065;23;20607;-81
2022/12/15 12:25:21;;;;;;;42.13;27.13;;;;;;;2.06;91.96;94434.84;6243197;23;20219;-81
2022/12/15 12:27:56;;;;;;;40.70;27.70;;;;;;;2.10;91.86;94427.72;6243932;23;20184;-83
2022/12/15 12:30:24;;;;;;;37.87;25.43;;;;;;;2.08;91.78;94427.88;6243988;22;20176;-81
2022/12/15 12:32:59;;;;;;;41.40;27.83;;;;;;;1.85;91.33;94426.81;6243800;23;20211;-83
2022/12/15 12:35:31;;;;;;;42.93;28.83;;;;;;;1.73;92.52;94421.22;6244068;23;20222;-83
2022/12/15 12:38:00;;;;;;;40.57;27.47;;;;;;;1.68;93.36;94425.94;6244393;23;20165;-82
2022/12/15 12:40:36;;;;;;;39.90;26.67;;;;;;;1.58;93.38;94410.03;6243751;23;20184;-80
2022/12/15 12:43:04;;;;;;;46.57;27.30;;;;;;;1.67;94.22;94411.66;6244504;23;20240;-82
2022/12/15 12:45:37;;;;;;;42.23;27.97;;;;;;;1.78;93.70;94413.94;6243298;23;20533;-81
2022/12/15 12:48:13;;;;;;;42.13;28.27;;;;;;;1.83;93.32;94413.47;6242795;23;20164;-82
2022/12/15 12:50:40;;;;;;;46.37;30.47;;;;;;;1.73;93.15;94411.84;6244324;22;20156;-82
2022/12/15 12:53:26;;;;;;;41.40;28.50;;;;;;;1.79;92.88;94410.44;6244089;23;20203;-81
2022/12/15 12:55:53;;;;;;;43.30;28.40;;;;;;;1.84;92.76;94420.94;6244238;23;20219;-82
2022/12/15 12:58:37;;;;;;;44.07;27.37;;;;;;;1.92;92.14;94425.28;6243269;23;20184;-83
2022/12/15 13:01:06;;;;;;;39.07;26.47;;;;;;;1.92;91.62;94418.44;6243634;23;20475;-83
2022/12/15 13:03:33;;;;;;;35.80;25.93;;;;;;;1.87;91.40;94423.19;6243521;23;20814;-82
2022/12/15 13:05:59;;;;;;;38.53;27.17;;;;;;;1.67;92.58;94432.75;6243397;23;20204;-83
2022/12/15 13:08:48;;;;;;;42.57;27.27;;;;;;;1.71;92.49;94434.06;6242762;23;20482;-82
2022/12/15 13:11:57;;;;;;;36.23;25.30;;;;;;;1.81;92.22;94433.94;6243122;22;20211;-82
2022/12/15 13:14:45;;;;;;;40.67;26.07;;;;;;;1.82;91.49;94442.34;6243453;23;20227;-83
2022/12/15 13:17:16;;;;;;;36.67;25.93;;;;;;;1.83;91.00;94444.72;6248644;22;20162;-82
2022/12/15 13:20:20;;;;;;;36.13;25.57;;;;;;;1.85;90.50;94437.75;6244453;23;20216;-82
2022/12/15 13:22:47;;;;;;;33.80;25.07;;;;;;;1.85;90.28;94442.84;6244069;23;20218;-82
2022/12/15 13:26:01;;;;;;;33.43;24.90;;;;;;;1.84;90.20;94431.09;6245015;23;20275;-82
2022/12/15 13:28:41;;;;;;;35.20;25.63;;;;;;;1.84;90.15;94430.28;6243755;23;20176;-82
2022/12/15 13:31:30;;;;;;;36.10;25.27;;;;;;;1.78;90.04;94421.53;6243605;22;20212;-83
2022/12/15 13:34:09;;;;;;;39.23;27.87;;;;;;;1.68;90.51;94403.91;6244349;23;20157;-82
2022/12/15 13:36:44;;;;;;;43.80;29.10;;;;;;;1.70;90.55;94389.34;6247190;23;20793;-82
2022/12/15 13:39:35;;;;;;;37.17;27.33;;;;;;;1.54;91.18;94398.59;6244763;23;20190;-81
2022/12/15 13:42:28;;;;;;;38.17;27.63;;;;;;;1.35;91.44;94395.31;6243878;23;20184;-83
2022/12/15 13:44:57;;;;;;;37.53;24.77;;;;;;;1.42;92.43;94394.72;6243795;23;20678;-83
2022/12/15 13:47:27;;;;;;;37.03;25.30;;;;;;;1.42;92.48;94395.50;6243957;23;20203;-83
2022/12/15 13:49:59;;;;;;;32.93;24.53;;;;;;;1.43;92.01;94401.38;6244061;23;20161;-81
2022/12/15 13:52:29;;;;;;;36.80;25.60;;;;;;;1.50;91.55;94399.84;6244772;23;20789;-82
2022/12/15 13:54:59;;;;;;;38.60;26.13;;;;;;;1.42;90.85;94392.19;6243939;23;20199;-82
2022/12/15 13:57:29;;;;;;;40.50;27.87;;;;;;;1.42;91.35;94389.66;6243510;23;20188;-81
2022/12/15 14:00:03;;;;;;;39.53;27.53;;;;;;;1.37;92.18;94401.03;6243647;23;20580;-84
2022/12/15 14:02:34;;;;;;;36.83;25.30;;;;;;;1.09;91.57;94397.06;6244020;23;20161;-82
2022/12/15 14:05:13;;;;;;;39.97;26.00;;;;;;;1.01;93.90;94402.06;6243971;23;20189;-81
2022/12/15 14:07:41;;;;;;;36.47;25.37;;;;;;;0.95;94.43;94407.75;6243521;22;20561;-82
2022/12/15 14:10:17;;;;;;;35.10;21.37;;;;;;;1.33;100.00;94402.28;6243263;23;20810;-84
2022/12/15 14:12:44;;;;;;;43.23;25.73;;;;;;;1.95;100.00;94395.28;6248338;23;20161;-84
2022/12/15 14:15:13;;;;;;;40.53;28.37;;;;;;;2.26;100.00;94393.00;6244051;23;20189;-82
2022/12/15 14:17:41;;;;;;;38.13;27.10;;;;;;;1.99;91.68;94388.97;6243137;23;20510;-82
2022/12/15 14:20:12;;;;;;;38.20;25.77;;;;;;;1.77;91.99;94388.69;6243349;23;20183;-83
2022/12/15 14:22:42;;;;;;;40.17;27.73;;;;;;;1.39;92.61;94388.19;6243237;23;20176;-82
2022/12/15 14:25:14;;;;;;;40.70;28.23;;;;;;;1.45;94.31;94381.75;6243981;23;20196;-82
2022/12/15 14:27:40;;;;;;;41.00;26.87;;;;;;;1.33;94.77;94388.81;6243533;23;20184;-83
2022/12/15 14:30:21;;;;;;;39.97;26.80;;;;;;;1.41;94.98;94396.47;6243199;22;20180;-82
2022/12/15 14:32:52;;;;;;;42.17;28.40;;;;;;;1.40;94.33;94392.34;6242533;23;20172;-81
2022/12/15 14:35:25;;;;;;;43.20;29.17;;;;;;;1.43;94.02;94384.44;6242988;23;20285;-83
2022/12/15 14:37:53;;;;;;;41.37;27.70;;;;;;;1.36;92.57;94384.22;6242685;23;20153;-82
2022/12/15 14:40:20;;;;;;;44.27;29.57;;;;;;;1.35;93.79;94374.22;6243170;23;20188;-81
2022/12/15 14:42:47;;;;;;;41.10;28.10;;;;;;;1.38;93.54;94376.47;6242857;23;20173;-82
2022/12/15 14:45:19;;;;;;;41.27;28.73;;;;;;;1.47;93.33;94372.25;6243744;23;20208;-82
2022/12/15 14:47:53;;;;;;;43.97;27.63;;;;;;;1.52;92.45;94375.13;6242607;23;20515;-80
2022/12/15 14:50:22;;;;;;;42.67;27.63;;;;;;;1.52;92.58;94375.94;6242854;23;20157;-82
2022/12/15 14:52:55;;;;;;;38.03;27.50;;;;;;;1.52;92.48;94372.59;6242954;22;20169;-82
2022/12/15 14:55:30;;;;;;;38.33;26.73;;;;;;;1.54;92.67;94370.72;6242215;23;20196;-82
2022/12/15 14:57:57;;;;;;;40.53;27.33;;;;;;;1.51;92.30;94359.13;6242973;23;20163;-82
2022/12/15 15:00:26;;;;;;;41.53;26.87;;;;;;;1.54;92.60;94358.03;6243007;23;20180;-81
2022/12/15 15:03:20;;;;;;;38.83;26.10;;;;;;;1.38;92.74;94354.44;6243526;23;20173;-82
2022/12/15 15:05:49;;;;;;;40.73;27.70;;;;;;;1.42;92.89;94351.63;6242036;23;20196;-82
2022/12/15 15:08:24;;;;;;;40.53;26.47;;;;;;;1.45;93.32;94359.72;6240825;22;20177;-81
2022/12/15 15:10:51;;;;;;;38.90;26.53;;;;;;;1.45;93.21;94358.94;6242014;23;20161;-82
2022/12/15 15:13:21;;;;;;;38.63;26.40;;;;;;;1.38;93.00;94358.72;6242622;23;20172;-81
2022/12/15 15:15:53;;;;;;;36.10;24.77;;;;;;;1.39;93.25;94360.31;6241646;23;20208;-82
2022/12/15 15:18:24;;;;;;;35.83;25.07;;;;;;;1.45;93.10;94353.84;6242295;23;20157;-81
2022/12/15 15:20:56;;;;;;;41.13;25.97;;;;;;;1.51;92.78;94355.78;6242227;23;20169;-82
2022/12/15 15:23:23;;;;;;;36.60;24.93;;;;;;;1.36;93.01;94350.47;6243151;23;20519;-83
2022/12/15 15:25:52;;;;;;;38.97;25.60;;;;;;;1.26;93.73;94349.78;6241828;23;20204;-82
2022/12/15 15:28:26;;;;;;;36.00;25.03;;;;;;;1.10;94.56;94358.09;6242249;23;20259;-81
2022/12/15 15:30:54;;;;;;;39.80;25.53;;;;;;;0.81;96.43;94363.44;6242577;22;20185;-81
2022/12/15 15:33:22;;;;;;;38.77;25.57;;;;;;;0.76;97.79;94362.31;6242647;22;20177;-82
2022/12/15 15:35:51;;;;;;;36.67;25.90;;;;;;;0.77;97.97;94357.06;6242980;23;20193;-82
2022/12/15 15:38:25;;;;;;;37.27;25.70;;;;;;;0.79;97.98;94357.72;6242672;23;20172;-82
2022/12/15 15:40:53;;;;;;;36.80;25.63;;;;;;;0.81;97.59;94363.44;6242976;23;20234;-82
2022/12/15 15:43:20;;;;;;;35.10;25.17;;;;;;;0.89;97.24;94348.31;6242944;23;20184;-82
2022/12/15 15:45:48;;;;;;;37.57;25.17;;;;;;;0.87;96.33;94349.41;6242916;23;20204;-82
2022/12/15 15:48:19;;;;;;;35.20;24.67;;;;;;;0.89;97.24;94347.50;6244015;23;20183;-81
2022/12/15 15:50:47;;;;;;;34.90;25.13;;;;;;;0.91;97.01;94356.56;6243531;23;20163;-81
2022/12/15 15:53:18;;;;;;;38.07;25.33;;;;;;;0.76;97.46;94352.19;6241735;23;20177;-81
2022/12/15 15:55:46;;;;;;;40.20;26.73;;;;;;;0.58;98.48;94352.97;6242033;23;20203;-81
2022/12/15 15:58:13;;;;;;;39.17;26.67;;;;;;;0.64;99.21;94354.13;6242447;23;20180;-81
2022/12/15 16:00:40;;;;;;;38.60;25.83;;;;;;;0.62;99.08;94354.28;6244377;23;20660;-82
2022/12/15 16:03:06;;;;;;;38.53;25.23;;;;;;;0.71;99.25;94355.13;6243967;23;20177;-81
2022/12/15 16:05:33;;;;;;;36.93;25.10;;;;;;;0.74;99.58;94351.53;6244106;23;20250;-80
2022/12/15 16:08:01;;;;;;;41.27;26.57;;;;;;;0.77;99.45;94344.41;6243053;23;20192;-82
2022/12/15 16:10:28;;;;;;;41.40;25.13;;;;;;;0.68;99.06;94340.22;6243936;23;20184;-82
2022/12/15 16:13:00;;;;;;;42.07;27.47;;;;;;;0.74;99.55;94331.25;6243955;22;20236;-81
2022/12/15 16:15:30;;;;;;;41.47;26.17;;;;;;;0.86;98.81;94330.88;6243247;23;20203;-82
2022/12/15 16:17:57;;;;;;;40.13;26.33;;;;;;;0.75;99.39;94323.53;6243309;23;20173;-82
2022/12/15 16:20:27;;;;;;;43.07;26.43;;;;;;;0.79;99.06;94321.47;6243955;23;20176;-80
2022/12/15 16:22:57;;;;;;;41.50;26.47;;;;;;;0.80;99.40;94326.38;6242030;23;20189;-81
2022/12/15 16:25:30;;;;;;;55.53;32.33;;;;;;;0.74;100.00;94329.53;6242978;23;20205;-80
2022/12/15 16:27:57;;;;;;;51.00;29.73;;;;;;;0.74;100.00;94321.94;6243388;23;20210;-82